sensor_id;sensor_type;location;lat;lon;timestamp;pressure;altitude;pressure_sealevel;temperature;humidity
30682;BME280;17439;48.092;11.842;2023-04-23T00:01:43;94836.44;;;17.09;47.11
30682;BME280;17439;48.092;11.842;2023-04-23T00:04:11;94829.72;;;17.07;47.01
30682;BME280;17439;48.092;11.842;2023-04-23T00:06:41;94831.31;;;17.08;47.04
30682;BME280;17439;48.092;11.842;2023-04-23T00:09:08;94814.03;;;17.03;46.91
30682;BME280;17439;48.092;11.842;2023-04-23T00:11:37;94824.19;;;17.03;47.26
30682;BME280;17439;48.092;11.842;2023-04-23T00:14:04;94827.31;;;17.01;47.05
30682;BME280;17439;48.092;11.842;2023-04-23T00:16:31;94826.53;;;17.01;47.38
30682;BME280;17439;48.092;11.842;2023-04-23T00:18:57;94827.66;;;17.00;47.18
30682;BME280;17439;48.092;11.842;2023-04-23T00:21:24;94822.19;;;17.00;47.38
30682;BME280;17439;48.092;11.842;2023-04-23T00:23:51;94822.56;;;16.98;47.27
30682;BME280;17439;48.092;11.842;2023-04-23T00:26:17;94816.31;;;16.98;47.46
30682;BME280;17439;48.092;11.842;2023-04-23T00:28:44;94815.88;;;16.96;47.47
30682;BME280;17439;48.092;11.842;2023-04-23T00:31:10;94812.34;;;16.95;47.73
30682;BME280;17439;48.092;11.842;2023-04-23T00:33:38;94822.88;;;16.93;47.58
30682;BME280;17439;48.092;11.842;2023-04-23T00:36:05;94817.41;;;16.93;47.53
30682;BME280;17439;48.092;11.842;2023-04-23T00:38:31;94814.66;;;16.93;47.74
30682;BME280;17439;48.092;11.842;2023-04-23T00:40:58;94820.50;;;16.92;47.59
30682;BME280;17439;48.092;11.842;2023-04-23T00:43:25;94809.91;;;16.90;47.77
30682;BME280;17439;48.092;11.842;2023-04-23T00:45:51;94815.41;;;16.90;47.62
30682;BME280;17439;48.092;11.842;2023-04-23T00:48:19;94809.16;;;16.90;47.92
30682;BME280;17439;48.092;11.842;2023-04-23T00:50:46;94812.25;;;16.88;47.85
30682;BME280;17439;48.092;11.842;2023-04-23T00:53:12;94811.44;;;16.88;47.86
30682;BME280;17439;48.092;11.842;2023-04-23T00:55:39;94809.88;;;16.86;47.79
30682;BME280;17439;48.092;11.842;2023-04-23T00:58:06;94814.88;;;16.84;47.72
30682;BME280;17439;48.092;11.842;2023-04-23T01:00:35;94812.91;;;16.81;47.97
30682;BME280;17439;48.092;11.842;2023-04-23T01:03:08;94808.94;;;16.79;48.11
30682;BME280;17439;48.092;11.842;2023-04-23T01:05:36;94806.94;;;16.76;48.22
30682;BME280;17439;48.092;11.842;2023-04-23T01:08:02;94808.44;;;16.73;48.08
30682;BME280;17439;48.092;11.842;2023-04-23T01:10:30;94809.97;;;16.71;48.32
30682;BME280;17439;48.092;11.842;2023-04-23T01:12:57;94804.41;;;16.67;48.45
30682;BME280;17439;48.092;11.842;2023-04-23T01:15:24;94804.00;;;16.65;48.51
30682;BME280;17439;48.092;11.842;2023-04-23T01:17:50;94800.06;;;16.62;48.58
30682;BME280;17439;48.092;11.842;2023-04-23T01:20:17;94803.16;;;16.61;48.70
30682;BME280;17439;48.092;11.842;2023-04-23T01:22:44;94805.47;;;16.59;48.94
30682;BME280;17439;48.092;11.842;2023-04-23T01:25:11;94809.38;;;16.58;49.09
30682;BME280;17439;48.092;11.842;2023-04-23T01:27:39;94802.69;;;16.55;49.13
30682;BME280;17439;48.092;11.842;2023-04-23T01:30:07;94802.25;;;16.53;49.17
30682;BME280;17439;48.092;11.842;2023-04-23T01:32:34;94812.75;;;16.51;49.26
30682;BME280;17439;48.092;11.842;2023-04-23T01:35:01;94806.88;;;16.49;49.27
30682;BME280;17439;48.092;11.842;2023-04-23T01:37:29;94809.19;;;16.47;49.24
30682;BME280;17439;48.092;11.842;2023-04-23T01:39:55;94816.16;;;16.44;49.41
30682;BME280;17439;48.092;11.842;2023-04-23T01:42:22;94814.59;;;16.43;49.28
30682;BME280;17439;48.092;11.842;2023-04-23T01:44:52;94807.91;;;16.41;49.42
30682;BME280;17439;48.092;11.842;2023-04-23T01:47:19;94806.31;;;16.40;49.29
30682;BME280;17439;48.092;11.842;2023-04-23T01:49:45;94810.56;;;16.37;49.59
30682;BME280;17439;48.092;11.842;2023-04-23T01:52:12;94803.88;;;16.35;49.48
30682;BME280;17439;48.092;11.842;2023-04-23T01:54:39;94800.38;;;16.34;49.53
30682;BME280;17439;48.092;11.842;2023-04-23T01:57:08;94805.84;;;16.34;49.62
30682;BME280;17439;48.092;11.842;2023-04-23T01:59:35;94805.03;;;16.33;49.77
30682;BME280;17439;48.092;11.842;2023-04-23T02:02:02;94795.25;;;16.32;49.72
30682;BME280;17439;48.092;11.842;2023-04-23T02:04:29;94796.81;;;16.33;49.69
30682;BME280;17439;48.092;11.842;2023-04-23T02:06:56;94805.03;;;16.33;49.58
30682;BME280;17439;48.092;11.842;2023-04-23T02:09:22;94802.66;;;16.32;49.55
30682;BME280;17439;48.092;11.842;2023-04-23T02:11:49;94797.19;;;16.32;49.49
30682;BME280;17439;48.092;11.842;2023-04-23T02:14:16;94802.66;;;16.32;49.47
30682;BME280;17439;48.092;11.842;2023-04-23T02:16:43;94807.34;;;16.31;49.79
30682;BME280;17439;48.092;11.842;2023-04-23T02:19:09;94796.41;;;16.31;49.71
30682;BME280;17439;48.092;11.842;2023-04-23T02:21:36;94800.66;;;16.29;49.92
30682;BME280;17439;48.092;11.842;2023-04-23T02:24:03;94795.97;;;16.29;49.92
30682;BME280;17439;48.092;11.842;2023-04-23T02:26:30;94794.84;;;16.30;49.83
30682;BME280;17439;48.092;11.842;2023-04-23T02:28:57;94793.25;;;16.29;49.95
30682;BME280;17439;48.092;11.842;2023-04-23T02:31:24;94793.25;;;16.29;49.95
30682;BME280;17439;48.092;11.842;2023-04-23T02:33:51;94795.97;;;16.29;50.11
30682;BME280;17439;48.092;11.842;2023-04-23T02:36:19;94794.63;;;16.20;49.50
30682;BME280;17439;48.092;11.842;2023-04-23T02:38:46;94792.81;;;16.27;50.25
30682;BME280;17439;48.092;11.842;2023-04-23T02:41:12;94799.06;;;16.28;50.55
30682;BME280;17439;48.092;11.842;2023-04-23T02:43:39;94804.53;;;16.28;50.89
30682;BME280;17439;48.092;11.842;2023-04-23T02:46:06;94799.44;;;16.26;51.04
30682;BME280;17439;48.092;11.842;2023-04-23T02:48:40;94796.28;;;16.24;51.74
30682;BME280;17439;48.092;11.842;2023-04-23T02:51:08;94794.34;;;16.25;51.53
30682;BME280;17439;48.092;11.842;2023-04-23T02:53:35;94795.47;;;16.24;51.35
30682;BME280;17439;48.092;11.842;2023-04-23T02:56:02;94797.78;;;16.22;51.51
30682;BME280;17439;48.092;11.842;2023-04-23T02:58:30;94798.50;;;16.19;51.77
30682;BME280;17439;48.092;11.842;2023-04-23T03:00:59;94810.59;;;16.18;52.16
30682;BME280;17439;48.092;11.842;2023-04-23T03:03:27;94799.19;;;16.12;52.41
30682;BME280;17439;48.092;11.842;2023-04-23T03:05:54;94801.50;;;16.10;52.69
30682;BME280;17439;48.092;11.842;2023-04-23T03:08:21;94804.94;;;16.07;52.77
30682;BME280;17439;48.092;11.842;2023-04-23T03:10:48;94798.59;;;16.03;53.13
30682;BME280;17439;48.092;11.842;2023-04-23T03:13:15;94809.13;;;16.01;53.44
30682;BME280;17439;48.092;11.842;2023-04-23T03:15:42;94820.78;;;15.98;53.49
30682;BME280;17439;48.092;11.842;2023-04-23T03:18:08;94818.75;;;15.94;53.65
30682;BME280;17439;48.092;11.842;2023-04-23T03:20:35;94815.97;;;15.91;53.77
30682;BME280;17439;48.092;11.842;2023-04-23T03:23:03;94818.59;;;15.87;54.22
30682;BME280;17439;48.092;11.842;2023-04-23T03:25:29;94819.78;;;15.86;54.09
30682;BME280;17439;48.092;11.842;2023-04-23T03:27:56;94814.66;;;15.85;53.94
30682;BME280;17439;48.092;11.842;2023-04-23T03:30:23;94815.03;;;15.83;53.97
30682;BME280;17439;48.092;11.842;2023-04-23T03:32:53;94810.69;;;15.82;54.31
30682;BME280;17439;48.092;11.842;2023-04-23T03:35:20;94818.91;;;15.82;54.23
30682;BME280;17439;48.092;11.842;2023-04-23T03:37:48;94817.31;;;15.81;54.27
30682;BME280;17439;48.092;11.842;2023-04-23T03:40:15;94819.63;;;15.79;54.30
30682;BME280;17439;48.092;11.842;2023-04-23T03:42:45;94826.69;;;15.80;54.35
30682;BME280;17439;48.092;11.842;2023-04-23T03:45:15;94815.31;;;15.78;54.50
30682;BME280;17439;48.092;11.842;2023-04-23T03:47:42;94819.19;;;15.77;54.63
30682;BME280;17439;48.092;11.842;2023-04-23T03:50:10;94831.22;;;15.76;54.84
30682;BME280;17439;48.092;11.842;2023-04-23T03:52:37;94824.22;;;15.75;55.10
30682;BME280;17439;48.092;11.842;2023-04-23T03:55:08;94837.06;;;15.74;55.23
30682;BME280;17439;48.092;11.842;2023-04-23T03:57:40;94834.25;;;15.71;55.17
30682;BME280;17439;48.092;11.842;2023-04-23T04:00:24;94841.66;;;15.70;55.14
30682;BME280;17439;48.092;11.842;2023-04-23T04:02:50;94838.13;;;15.70;55.00
30682;BME280;17439;48.092;11.842;2023-04-23T04:05:19;94844.41;;;15.70;54.90
30682;BME280;17439;48.092;11.842;2023-04-23T04:07:46;94851.78;;;15.70;54.96
30682;BME280;17439;48.092;11.842;2023-04-23T04:10:13;94843.59;;;15.70;54.69
30682;BME280;17439;48.092;11.842;2023-04-23T04:12:41;94842.81;;;15.69;54.57
30682;BME280;17439;48.092;11.842;2023-04-23T04:15:08;94844.75;;;15.69;54.45
30682;BME280;17439;48.092;11.842;2023-04-23T04:17:35;94854.09;;;15.68;54.56
30682;BME280;17439;48.092;11.842;2023-04-23T04:20:02;94849.41;;;15.68;54.55
30682;BME280;17439;48.092;11.842;2023-04-23T04:22:29;94844.31;;;15.67;54.50
30682;BME280;17439;48.092;11.842;2023-04-23T04:24:56;94849.78;;;15.67;54.59
30682;BME280;17439;48.092;11.842;2023-04-23T04:27:22;94854.81;;;15.65;54.51
30682;BME280;17439;48.092;11.842;2023-04-23T04:29:49;94852.09;;;15.65;54.95
30682;BME280;17439;48.092;11.842;2023-04-23T04:32:16;94861.41;;;15.64;55.28
30682;BME280;17439;48.092;11.842;2023-04-23T04:34:42;94852.78;;;15.62;55.37
30682;BME280;17439;48.092;11.842;2023-04-23T04:37:09;94859.06;;;15.62;55.52
30682;BME280;17439;48.092;11.842;2023-04-23T04:39:36;94857.13;;;15.63;55.78
30682;BME280;17439;48.092;11.842;2023-04-23T04:42:03;94861.81;;;15.62;55.99
30682;BME280;17439;48.092;11.842;2023-04-23T04:44:30;94855.53;;;15.62;55.84
30682;BME280;17439;48.092;11.842;2023-04-23T04:46:56;94864.97;;;15.64;56.25
30682;BME280;17439;48.092;11.842;2023-04-23T04:49:23;94866.88;;;15.64;56.02
30682;BME280;17439;48.092;11.842;2023-04-23T04:51:50;94867.34;;;15.66;55.91
30682;BME280;17439;48.092;11.842;2023-04-23T04:54:16;94875.97;;;15.68;55.82
30682;BME280;17439;48.092;11.842;2023-04-23T04:56:43;94868.53;;;15.68;55.73
30682;BME280;17439;48.092;11.842;2023-04-23T04:59:10;94875.59;;;15.69;55.60
30682;BME280;17439;48.092;11.842;2023-04-23T05:01:36;94885.03;;;15.72;55.21
30682;BME280;17439;48.092;11.842;2023-04-23T05:04:03;94884.22;;;15.71;55.35
30682;BME280;17439;48.092;11.842;2023-04-23T05:06:30;94892.41;;;15.71;55.01
30682;BME280;17439;48.092;11.842;2023-04-23T05:08:57;94893.59;;;15.70;55.11
30682;BME280;17439;48.092;11.842;2023-04-23T05:11:23;94893.13;;;15.68;55.27
30682;BME280;17439;48.092;11.842;2023-04-23T05:13:50;94907.84;;;15.64;55.23
30682;BME280;17439;48.092;11.842;2023-04-23T05:16:17;94907.78;;;15.60;55.44
30682;BME280;17439;48.092;11.842;2023-04-23T05:18:44;94909.56;;;15.52;55.75
30682;BME280;17439;48.092;11.842;2023-04-23T05:21:11;94904.72;;;15.46;56.53
30682;BME280;17439;48.092;11.842;2023-04-23T05:23:38;94906.16;;;15.39;56.70
30682;BME280;17439;48.092;11.842;2023-04-23T05:26:04;94905.19;;;15.32;57.34
30682;BME280;17439;48.092;11.842;2023-04-23T05:28:31;94909.72;;;15.24;57.81
30682;BME280;17439;48.092;11.842;2023-04-23T05:30:58;94904.97;;;15.21;58.44
30682;BME280;17439;48.092;11.842;2023-04-23T05:33:25;94914.22;;;15.16;58.81
30682;BME280;17439;48.092;11.842;2023-04-23T05:35:58;94914.00;;;15.09;59.03
30682;BME280;17439;48.092;11.842;2023-04-23T05:38:25;94914.72;;;15.06;59.63
30682;BME280;17439;48.092;11.842;2023-04-23T05:40:51;94928.28;;;15.02;59.98
30682;BME280;17439;48.092;11.842;2023-04-23T05:43:18;94925.91;;;15.01;60.50
30682;BME280;17439;48.092;11.842;2023-04-23T05:45:45;94926.25;;;14.99;60.92
30682;BME280;17439;48.092;11.842;2023-04-23T05:48:12;94933.31;;;15.00;61.00
30682;BME280;17439;48.092;11.842;2023-04-23T05:50:38;94926.69;;;15.01;61.18
30682;BME280;17439;48.092;11.842;2023-04-23T05:53:05;94933.41;;;15.04;61.11
30682;BME280;17439;48.092;11.842;2023-04-23T05:55:32;94936.56;;;15.06;61.45
30682;BME280;17439;48.092;11.842;2023-04-23T05:57:58;94935.84;;;15.09;62.04
30682;BME280;17439;48.092;11.842;2023-04-23T06:00:25;94939.47;;;15.13;61.99
30682;BME280;17439;48.092;11.842;2023-04-23T06:02:52;94941.50;;;15.16;61.80
30682;BME280;17439;48.092;11.842;2023-04-23T06:05:19;94939.63;;;15.20;62.09
30682;BME280;17439;48.092;11.842;2023-04-23T06:07:46;94946.78;;;15.25;62.24
30682;BME280;17439;48.092;11.842;2023-04-23T06:10:13;94935.56;;;15.30;62.19
30682;BME280;17439;48.092;11.842;2023-04-23T06:12:39;94943.16;;;15.37;62.19
30682;BME280;17439;48.092;11.842;2023-04-23T06:15:09;94947.94;;;15.40;62.19
30682;BME280;17439;48.092;11.842;2023-04-23T06:17:36;94945.72;;;15.46;62.10
30682;BME280;17439;48.092;11.842;2023-04-23T06:20:03;94953.13;;;15.45;62.22
30682;BME280;17439;48.092;11.842;2023-04-23T06:22:31;94952.41;;;15.48;62.05
30682;BME280;17439;48.092;11.842;2023-04-23T06:24:57;94953.97;;;15.49;61.78
30682;BME280;17439;48.092;11.842;2023-04-23T06:27:24;94954.44;;;15.51;61.79
30682;BME280;17439;48.092;11.842;2023-04-23T06:29:52;94952.13;;;15.53;61.79
30682;BME280;17439;48.092;11.842;2023-04-23T06:32:19;94956.09;;;15.56;61.57
30682;BME280;17439;48.092;11.842;2023-04-23T06:34:46;94956.88;;;15.56;61.33
30682;BME280;17439;48.092;11.842;2023-04-23T06:37:27;94952.56;;;15.55;61.53
30682;BME280;17439;48.092;11.842;2023-04-23T06:39:55;94958.56;;;15.45;60.88
30682;BME280;17439;48.092;11.842;2023-04-23T06:42:22;94958.31;;;15.50;61.29
30682;BME280;17439;48.092;11.842;2023-04-23T06:45:03;94963.34;;;15.48;61.19
30682;BME280;17439;48.092;11.842;2023-04-23T06:47:32;94955.41;;;15.43;61.47
30682;BME280;17439;48.092;11.842;2023-04-23T06:49:58;94958.84;;;15.40;61.12
30682;BME280;17439;48.092;11.842;2023-04-23T06:52:25;94960.25;;;15.34;61.58
30682;BME280;17439;48.092;11.842;2023-04-23T06:54:52;94958.22;;;15.31;61.42
30682;BME280;17439;48.092;11.842;2023-04-23T06:57:19;94952.59;;;15.23;61.59
30682;BME280;17439;48.092;11.842;2023-04-23T06:59:45;94956.38;;;15.19;61.77
30682;BME280;17439;48.092;11.842;2023-04-23T07:02:13;94952.50;;;15.04;61.66
30682;BME280;17439;48.092;11.842;2023-04-23T07:04:40;94958.41;;;15.06;62.21
30682;BME280;17439;48.092;11.842;2023-04-23T07:07:07;94954.78;;;15.02;62.33
30682;BME280;17439;48.092;11.842;2023-04-23T07:09:34;94961.75;;;14.99;62.38
30682;BME280;17439;48.092;11.842;2023-04-23T07:12:01;94967.91;;;14.96;62.37
30682;BME280;17439;48.092;11.842;2023-04-23T07:14:28;94951.00;;;14.91;62.68
30682;BME280;17439;48.092;11.842;2023-04-23T07:16:54;94947.38;;;14.86;63.11
30682;BME280;17439;48.092;11.842;2023-04-23T07:19:21;94953.53;;;14.83;63.07
30682;BME280;17439;48.092;11.842;2023-04-23T07:21:48;94958.56;;;14.81;63.42
30682;BME280;17439;48.092;11.842;2023-04-23T07:24:14;94955.38;;;14.79;63.58
30682;BME280;17439;48.092;11.842;2023-04-23T07:26:41;94952.97;;;14.78;63.86
30682;BME280;17439;48.092;11.842;2023-04-23T07:29:08;94953.78;;;14.78;64.12
30682;BME280;17439;48.092;11.842;2023-04-23T07:31:35;94944.00;;;14.77;64.22
30682;BME280;17439;48.092;11.842;2023-04-23T07:34:02;94943.66;;;14.79;64.33
30682;BME280;17439;48.092;11.842;2023-04-23T07:36:28;94941.03;;;14.82;64.40
30682;BME280;17439;48.092;11.842;2023-04-23T07:38:55;94944.22;;;14.84;64.27
30682;BME280;17439;48.092;11.842;2023-04-23T07:41:22;94945.78;;;14.85;64.43
30682;BME280;17439;48.092;11.842;2023-04-23T07:43:48;94941.50;;;14.84;64.84
30682;BME280;17439;48.092;11.842;2023-04-23T07:46:15;94941.50;;;14.84;65.17
30682;BME280;17439;48.092;11.842;2023-04-23T07:48:42;94942.81;;;14.91;65.10
30682;BME280;17439;48.092;11.842;2023-04-23T07:51:09;94946.41;;;14.95;65.25
30682;BME280;17439;48.092;11.842;2023-04-23T07:53:35;94940.25;;;14.98;65.41
30682;BME280;17439;48.092;11.842;2023-04-23T07:59:21;94943.25;;;15.09;65.46
30682;BME280;17439;48.092;11.842;2023-04-23T08:01:48;94944.22;;;15.16;65.42
30682;BME280;17439;48.092;11.842;2023-04-23T08:04:15;94941.66;;;15.23;65.22
30682;BME280;17439;48.092;11.842;2023-04-23T08:06:42;94947.31;;;15.31;64.84
30682;BME280;17439;48.092;11.842;2023-04-23T08:09:08;94941.94;;;15.34;64.84
30682;BME280;17439;48.092;11.842;2023-04-23T08:11:35;94941.22;;;15.37;65.08
30682;BME280;17439;48.092;11.842;2023-04-23T08:14:02;94942.19;;;15.45;65.19
30682;BME280;17439;48.092;11.842;2023-04-23T08:16:28;94942.00;;;15.54;64.78
30682;BME280;17439;48.092;11.842;2023-04-23T08:18:56;94942.53;;;15.59;65.31
30682;BME280;17439;48.092;11.842;2023-04-23T08:21:31;94942.66;;;15.67;65.35
30682;BME280;17439;48.092;11.842;2023-04-23T08:23:58;94935.72;;;15.69;65.30
30682;BME280;17439;48.092;11.842;2023-04-23T08:26:25;94932.69;;;15.74;65.55
30682;BME280;17439;48.092;11.842;2023-04-23T08:28:51;94939.84;;;15.79;65.16
30682;BME280;17439;48.092;11.842;2023-04-23T08:31:18;94946.91;;;15.80;64.91
30682;BME280;17439;48.092;11.842;2023-04-23T08:33:52;94940.75;;;15.83;64.39
30682;BME280;17439;48.092;11.842;2023-04-23T08:36:19;94936.41;;;15.82;64.22
30682;BME280;17439;48.092;11.842;2023-04-23T08:38:46;94936.00;;;15.80;63.99
30682;BME280;17439;48.092;11.842;2023-04-23T08:41:14;94934.41;;;15.79;64.03
30682;BME280;17439;48.092;11.842;2023-04-23T08:43:45;94930.53;;;15.80;63.50
30682;BME280;17439;48.092;11.842;2023-04-23T08:46:12;94929.75;;;15.80;63.28
30682;BME280;17439;48.092;11.842;2023-04-23T08:48:40;94920.72;;;15.79;63.80
30682;BME280;17439;48.092;11.842;2023-04-23T08:51:08;94914.13;;;15.80;64.06
30682;BME280;17439;48.092;11.842;2023-04-23T08:53:35;94922.13;;;15.73;63.52
30682;BME280;17439;48.092;11.842;2023-04-23T08:56:06;94925.91;;;15.84;64.83
30682;BME280;17439;48.092;11.842;2023-04-23T08:58:33;94922.63;;;15.94;65.15
30682;BME280;17439;48.092;11.842;2023-04-23T09:01:01;94921.28;;;16.04;65.00
30682;BME280;17439;48.092;11.842;2023-04-23T09:03:29;94922.56;;;16.10;65.21
30682;BME280;17439;48.092;11.842;2023-04-23T09:05:56;94926.66;;;16.20;65.45
30682;BME280;17439;48.092;11.842;2023-04-23T09:08:23;94929.28;;;16.32;65.47
30682;BME280;17439;48.092;11.842;2023-04-23T09:10:51;94931.13;;;16.48;64.28
30682;BME280;17439;48.092;11.842;2023-04-23T09:13:18;94920.38;;;16.59;65.25
30682;BME280;17439;48.092;11.842;2023-04-23T09:15:44;94914.38;;;16.73;65.82
30682;BME280;17439;48.092;11.842;2023-04-23T09:18:11;94913.16;;;16.90;65.81
30682;BME280;17439;48.092;11.842;2023-04-23T09:20:38;94910.22;;;17.02;65.82
30682;BME280;17439;48.092;11.842;2023-04-23T09:23:07;94907.31;;;17.14;64.43
30682;BME280;17439;48.092;11.842;2023-04-23T09:25:34;94905.97;;;17.28;64.92
30682;BME280;17439;48.092;11.842;2023-04-23T09:28:06;94902.97;;;17.36;63.54
30682;BME280;17439;48.092;11.842;2023-04-23T09:30:43;94894.88;;;17.44;62.84
30682;BME280;17439;48.092;11.842;2023-04-23T09:33:11;94901.66;;;17.53;64.52
30682;BME280;17439;48.092;11.842;2023-04-23T09:35:38;94904.13;;;17.62;64.48
30682;BME280;17439;48.092;11.842;2023-04-23T09:38:06;94896.03;;;17.69;64.09
30682;BME280;17439;48.092;11.842;2023-04-23T09:40:33;94884.72;;;17.74;64.32
30682;BME280;17439;48.092;11.842;2023-04-23T09:43:02;94886.41;;;17.83;63.23
30682;BME280;17439;48.092;11.842;2023-04-23T09:45:29;94878.72;;;17.92;63.99
30682;BME280;17439;48.092;11.842;2023-04-23T09:47:56;94880.81;;;18.02;64.34
30682;BME280;17439;48.092;11.842;2023-04-23T09:50:37;94875.09;;;18.15;62.27
30682;BME280;17439;48.092;11.842;2023-04-23T09:53:06;94885.06;;;18.30;64.32
30682;BME280;17439;48.092;11.842;2023-04-23T09:55:35;94877.78;;;18.45;63.91
30682;BME280;17439;48.092;11.842;2023-04-23T09:58:09;94877.91;;;18.56;62.94
30682;BME280;17439;48.092;11.842;2023-04-23T10:00:38;94876.81;;;18.64;61.88
30682;BME280;17439;48.092;11.842;2023-04-23T10:03:06;94875.72;;;18.72;61.57
30682;BME280;17439;48.092;11.842;2023-04-23T10:05:36;94867.03;;;18.66;57.17
30682;BME280;17439;48.092;11.842;2023-04-23T10:08:23;94869.97;;;18.84;61.50
30682;BME280;17439;48.092;11.842;2023-04-23T10:10:50;94868.84;;;18.89;61.31
30682;BME280;17439;48.092;11.842;2023-04-23T10:13:37;94861.06;;;18.95;61.21
30682;BME280;17439;48.092;11.842;2023-04-23T10:16:04;94859.94;;;18.99;60.56
30682;BME280;17439;48.092;11.842;2023-04-23T10:18:50;94861.13;;;19.02;57.85
30682;BME280;17439;48.092;11.842;2023-04-23T10:21:18;94853.31;;;19.08;59.78
30682;BME280;17439;48.092;11.842;2023-04-23T10:23:46;94853.38;;;19.15;60.18
30682;BME280;17439;48.092;11.842;2023-04-23T10:26:15;94848.72;;;19.23;60.46
30682;BME280;17439;48.092;11.842;2023-04-23T10:28:46;94848.34;;;19.28;58.63
30682;BME280;17439;48.092;11.842;2023-04-23T10:31:13;94853.91;;;19.35;59.36
30682;BME280;17439;48.092;11.842;2023-04-23T10:33:41;94850.41;;;19.38;58.47
30682;BME280;17439;48.092;11.842;2023-04-23T10:36:25;94847.28;;;19.39;57.66
30682;BME280;17439;48.092;11.842;2023-04-23T10:38:52;94835.94;;;19.48;58.47
30682;BME280;17439;48.092;11.842;2023-04-23T10:41:30;94823.81;;;19.56;57.63
30682;BME280;17439;48.092;11.842;2023-04-23T10:43:59;94812.50;;;19.69;58.53
30682;BME280;17439;48.092;11.842;2023-04-23T10:46:32;94810.59;;;19.80;56.35
30682;BME280;17439;48.092;11.842;2023-04-23T10:49:13;94819.31;;;19.93;56.40
30682;BME280;17439;48.092;11.842;2023-04-23T10:51:44;94817.41;;;20.08;58.13
30682;BME280;17439;48.092;11.842;2023-04-23T10:54:32;94820.22;;;20.22;57.55
30682;BME280;17439;48.092;11.842;2023-04-23T10:57:05;94808.84;;;20.35;56.99
30682;BME280;17439;48.092;11.842;2023-04-23T10:59:34;94807.69;;;20.43;56.40
30682;BME280;17439;48.092;11.842;2023-04-23T11:02:08;94808.47;;;20.47;54.19
30682;BME280;17439;48.092;11.842;2023-04-23T11:04:40;94799.84;;;20.52;54.37
30682;BME280;17439;48.092;11.842;2023-04-23T11:07:09;94790.81;;;20.59;55.68
30682;BME280;17439;48.092;11.842;2023-04-23T11:09:47;94785.31;;;20.62;53.75
30682;BME280;17439;48.092;11.842;2023-04-23T11:14:51;94782.56;;;20.66;53.75
30682;BME280;17439;48.092;11.842;2023-04-23T11:22:37;94766.41;;;20.61;49.61
30682;BME280;17439;48.092;11.842;2023-04-23T11:25:08;94760.50;;;20.62;50.42
30682;BME280;17439;48.092;11.842;2023-04-23T11:27:38;94752.28;;;20.66;51.81
30682;BME280;17439;48.092;11.842;2023-04-23T11:32:37;94739.72;;;20.79;53.07
30682;BME280;17439;48.092;11.842;2023-04-23T11:35:06;94731.03;;;20.88;52.95
30682;BME280;17439;48.092;11.842;2023-04-23T11:37:40;94748.72;;;20.98;51.08
30682;BME280;17439;48.092;11.842;2023-04-23T11:40:12;94736.13;;;21.11;53.18
30682;BME280;17439;48.092;11.842;2023-04-23T11:42:46;94742.03;;;21.20;49.36
30682;BME280;17439;48.092;11.842;2023-04-23T11:45:21;94729.00;;;21.32;49.73
30682;BME280;17439;48.092;11.842;2023-04-23T11:47:50;94720.31;;;21.41;51.44
30682;BME280;17439;48.092;11.842;2023-04-23T11:50:19;94723.44;;;21.46;50.84
30682;BME280;17439;48.092;11.842;2023-04-23T11:52:46;94717.53;;;21.55;50.97
30682;BME280;17439;48.092;11.842;2023-04-23T11:55:14;94716.72;;;21.65;49.63
30682;BME280;17439;48.092;11.842;2023-04-23T11:57:45;94724.16;;;21.72;48.39
30682;BME280;17439;48.092;11.842;2023-04-23T12:00:16;94715.47;;;21.77;47.40
30682;BME280;17439;48.092;11.842;2023-04-23T12:03:02;94707.56;;;21.86;46.88
30682;BME280;17439;48.092;11.842;2023-04-23T12:05:35;94705.16;;;21.96;48.20
30682;BME280;17439;48.092;11.842;2023-04-23T12:10:41;94694.03;;;22.10;45.66
30682;BME280;17439;48.092;11.842;2023-04-23T12:13:13;94690.41;;;22.20;46.54
30682;BME280;17439;48.092;11.842;2023-04-23T12:16:06;94681.28;;;22.27;47.32
30682;BME280;17439;48.092;11.842;2023-04-23T12:18:40;94686.34;;;22.39;46.51
30682;BME280;17439;48.092;11.842;2023-04-23T12:21:09;94676.41;;;22.49;48.37
30682;BME280;17439;48.092;11.842;2023-04-23T12:23:38;94682.63;;;22.60;49.05
30682;BME280;17439;48.092;11.842;2023-04-23T12:26:09;94668.84;;;22.57;47.00
30682;BME280;17439;48.092;11.842;2023-04-23T12:28:45;94672.53;;;22.88;44.95
30682;BME280;17439;48.092;11.842;2023-04-23T12:31:18;94668.81;;;23.06;41.47
30682;BME280;17439;48.092;11.842;2023-04-23T12:33:45;94660.94;;;23.04;41.52
30682;BME280;17439;48.092;11.842;2023-04-23T12:36:14;94662.59;;;22.94;43.03
30682;BME280;17439;48.092;11.842;2023-04-23T12:38:41;94667.41;;;22.87;44.24
30682;BME280;17439;48.092;11.842;2023-04-23T12:42:04;94666.69;;;22.79;43.66
30682;BME280;17439;48.092;11.842;2023-04-23T12:44:35;94657.19;;;22.83;45.03
30682;BME280;17439;48.092;11.842;2023-04-23T12:47:07;94652.78;;;22.90;43.60
30682;BME280;17439;48.092;11.842;2023-04-23T12:49:34;94647.56;;;22.99;44.17
30682;BME280;17439;48.092;11.842;2023-04-23T12:52:02;94636.16;;;22.93;45.32
30682;BME280;17439;48.092;11.842;2023-04-23T12:54:31;94631.75;;;22.99;43.41
30682;BME280;17439;48.092;11.842;2023-04-23T12:56:59;94631.69;;;23.07;43.88
30682;BME280;17439;48.092;11.842;2023-04-23T12:59:26;94628.94;;;23.07;43.56
30682;BME280;17439;48.092;11.842;2023-04-23T13:01:53;94626.50;;;23.12;40.50
30682;BME280;17439;48.092;11.842;2023-04-23T13:04:20;94623.81;;;23.05;41.31
30682;BME280;17439;48.092;11.842;2023-04-23T13:06:46;94622.28;;;22.97;42.44
30682;BME280;17439;48.092;11.842;2023-04-23T13:09:13;94618.47;;;22.87;43.46
30682;BME280;17439;48.092;11.842;2023-04-23T13:11:40;94611.41;;;22.82;43.46
30682;BME280;17439;48.092;11.842;2023-04-23T13:14:08;94602.75;;;22.80;44.18